Time,TemperatureF,DewpointF,PressureIn,WindDirection,WindDirectionDegrees,WindSpeedMPH,WindSpeedGustMPH,Humidity,HourlyPrecipIn,Conditions,Clouds,dailyrainin,SoftwareType,DateUTC
2013-09-21 00:04:00,70.0,68.0,29.77,SE,143,0.0,1.0,92,0.00,,,0.00,weatherlink.com 1.10,2013-09-21 04:04:00,
2013-09-21 00:19:00,69.9,68.0,29.77,SSW,200,0.0,2.0,92,0.00,,,0.00,weatherlink.com 1.10,2013-09-21 04:19:00,
2013-09-21 00:35:00,69.8,68.0,29.76,SSW,205,0.0,1.0,93,0.00,,,0.00,weatherlink.com 1.10,2013-09-21 04:35:00,
2013-09-21 00:49:00,69.8,67.0,29.76,SW,229,0.0,3.0,92,0.00,,,0.00,weatherlink.com 1.10,2013-09-21 04:49:00,
2013-09-21 01:04:00,69.6,67.0,29.76,South,172,0.0,3.0,92,0.00,,,0.00,weatherlink.com 1.10,2013-09-21 05:04:00,
2013-09-21 01:19:00,69.4,67.0,29.75,South,184,0.0,1.0,93,0.00,,,0.00,weatherlink.com 1.10,2013-09-21 05:19:00,
2013-09-21 01:34:00,69.3,67.0,29.75,South,190,0.0,1.0,93,0.00,,,0.00,weatherlink.com 1.10,2013-09-21 05:34:00,
2013-09-21 01:49:00,69.2,67.0,29.75,SE,135,0.0,1.0,93,0.00,,,0.00,weatherlink.com 1.10,2013-09-21 05:49:00,
2013-09-21 02:04:00,69.2,67.0,29.75,SW,215,0.0,3.0,92,0.00,,,0.00,weatherlink.com 1.10,2013-09-21 06:04:00,
2013-09-21 02:19:00,69.3,67.0,29.74,SSE,150,0.0,4.0,92,0.00,,,0.00,weatherlink.com 1.10,2013-09-21 06:19:00,
2013-09-21 02:34:00,69.5,67.0,29.73,SSE,156,3.0,4.0,91,0.00,,,0.00,weatherlink.com 1.10,2013-09-21 06:34:00,
2013-09-21 02:49:00,69.6,67.0,29.73,South,186,1.0,3.0,91,0.00,,,0.00,weatherlink.com 1.10,2013-09-21 06:49:00,
2013-09-21 03:04:00,69.9,67.0,29.72,South,182,1.0,4.0,90,0.00,,,0.00,weatherlink.com 1.10,2013-09-21 07:04:00,
2013-09-21 03:19:00,70.0,67.0,29.72,East,101,2.0,4.0,89,0.00,,,0.00,weatherlink.com 1.10,2013-09-21 07:19:00,
2013-09-21 03:34:00,70.0,66.0,29.72,SSW,193,1.0,4.0,88,0.00,,,0.00,weatherlink.com 1.10,2013-09-21 07:34:00,
2013-09-21 03:49:00,69.9,66.0,29.71,SW,229,0.0,3.0,88,0.00,,,0.00,weatherlink.com 1.10,2013-09-21 07:49:00,
2013-09-21 04:04:00,69.8,66.0,29.70,SSW,193,0.0,4.0,88,0.00,,,0.00,weatherlink.com 1.10,2013-09-21 08:04:00,
2013-09-21 04:19:00,69.7,66.0,29.70,South,190,1.0,3.0,87,0.00,,,0.00,weatherlink.com 1.10,2013-09-21 08:19:00,
2013-09-21 04:34:00,69.6,66.0,29.70,SW,229,2.0,5.0,87,0.00,,,0.00,weatherlink.com 1.10,2013-09-21 08:34:00,
2013-09-21 04:49:00,69.5,66.0,29.70,SW,233,0.0,4.0,87,0.00,,,0.00,weatherlink.com 1.10,2013-09-21 08:49:00,
2013-09-21 05:04:00,69.5,66.0,29.69,West,271,0.0,5.0,87,0.00,,,0.00,weatherlink.com 1.10,2013-09-21 09:04:00,
2013-09-21 05:19:00,69.4,65.0,29.68,SW,236,1.0,5.0,87,0.00,,,0.00,weatherlink.com 1.10,2013-09-21 09:19:00,
2013-09-21 05:35:00,69.2,65.0,29.68,SE,129,0.0,7.0,87,0.00,,,0.00,weatherlink.com 1.10,2013-09-21 09:35:00,
2013-09-21 05:50:00,69.2,65.0,29.67,WSW,256,0.0,5.0,86,0.00,,,0.00,weatherlink.com 1.10,2013-09-21 09:50:00,
2013-09-21 06:05:00,69.0,65.0,29.67,SW,230,0.0,4.0,86,0.00,,,0.00,weatherlink.com 1.10,2013-09-21 10:05:00,
2013-09-21 06:20:00,69.1,65.0,29.66,SW,231,0.0,4.0,86,0.00,,,0.00,weatherlink.com 1.10,2013-09-21 10:20:00,
2013-09-21 06:35:00,69.1,65.0,29.66,WSW,253,0.0,5.0,86,0.00,,,0.00,weatherlink.com 1.10,2013-09-21 10:35:00,
2013-09-21 06:50:00,69.2,65.0,29.66,SSW,193,1.0,5.0,85,0.00,,,0.00,weatherlink.com 1.10,2013-09-21 10:50:00,
2013-09-21 07:05:00,69.2,65.0,29.66,SW,231,1.0,4.0,85,0.00,,,0.00,weatherlink.com 1.10,2013-09-21 11:05:00,
2013-09-21 07:20:00,69.2,65.0,29.66,WSW,250,1.0,3.0,85,0.00,,,0.00,weatherlink.com 1.10,2013-09-21 11:20:00,
2013-09-21 07:35:00,69.2,64.0,29.66,SSW,193,0.0,3.0,84,0.00,,,0.00,weatherlink.com 1.10,2013-09-21 11:35:00,
2013-09-21 07:50:00,69.3,64.0,29.66,WSW,238,0.0,4.0,84,0.00,,,0.00,weatherlink.com 1.10,2013-09-21 11:50:00,
2013-09-21 08:05:00,69.4,64.0,29.65,South,176,0.0,8.0,84,0.00,,,0.00,weatherlink.com 1.10,2013-09-21 12:05:00,
2013-09-21 08:20:00,69.7,65.0,29.65,SW,221,1.0,4.0,84,0.00,,,0.00,weatherlink.com 1.10,2013-09-21 12:20:00,
2013-09-21 08:35:00,69.9,65.0,29.65,SSW,193,0.0,3.0,84,0.00,,,0.00,weatherlink.com 1.10,2013-09-21 12:35:00,
2013-09-21 08:50:00,70.1,65.0,29.64,South,180,2.0,5.0,83,0.00,,,0.00,weatherlink.com 1.10,2013-09-21 12:50:00,
2013-09-21 09:05:00,70.1,65.0,29.64,SE,142,0.0,4.0,84,0.00,,,0.00,weatherlink.com 1.10,2013-09-21 13:05:00,
2013-09-21 09:20:00,70.6,65.0,29.64,South,179,0.0,3.0,83,0.00,,,0.00,weatherlink.com 1.10,2013-09-21 13:20:00,
2013-09-21 09:35:00,70.8,66.0,29.64,South,181,0.0,3.0,84,0.00,,,0.00,weatherlink.com 1.10,2013-09-21 13:35:00,
2013-09-21 09:50:00,70.2,66.0,29.64,South,177,0.0,2.0,86,0.00,,,0.00,weatherlink.com 1.10,2013-09-21 13:50:00,
2013-09-21 10:05:00,69.7,66.0,29.64,SE,138,0.0,2.0,88,0.01,,,0.01,weatherlink.com 1.10,2013-09-21 14:05:00,
2013-09-21 10:20:00,69.2,66.0,29.64,ESE,120,1.0,1.0,90,0.03,,,0.03,weatherlink.com 1.10,2013-09-21 14:20:00,
2013-09-21 10:35:00,68.9,66.0,29.63,SSW,198,0.0,1.0,91,0.05,,,0.05,weatherlink.com 1.10,2013-09-21 14:35:00,
2013-09-21 10:50:00,68.8,66.0,29.62,SSW,205,0.0,2.0,92,0.07,,,0.07,weatherlink.com 1.10,2013-09-21 14:50:00,
2013-09-21 11:05:00,68.3,66.0,29.62,West,262,0.0,1.0,93,0.11,,,0.12,weatherlink.com 1.10,2013-09-21 15:05:00,
2013-09-21 11:20:00,65.1,62.0,29.65,NW,307,10.0,17.0,89,0.18,,,0.21,weatherlink.com 1.10,2013-09-21 15:20:00,
2013-09-21 11:35:00,62.2,61.0,29.64,NNW,345,2.0,12.0,94,0.19,,,0.24,weatherlink.com 1.10,2013-09-21 15:35:00,
2013-09-21 11:50:00,61.5,60.0,29.64,NW,326,5.0,10.0,95,0.19,,,0.26,weatherlink.com 1.10,2013-09-21 15:50:00,
2013-09-21 12:05:00,61.0,60.0,29.67,WNW,285,2.0,7.0,95,0.16,,,0.28,weatherlink.com 1.10,2013-09-21 16:05:00,
2013-09-21 12:20:00,60.8,59.0,29.66,WNW,282,1.0,6.0,95,0.12,,,0.33,weatherlink.com 1.10,2013-09-21 16:20:00,
2013-09-21 12:35:00,60.7,60.0,29.66,NW,307,4.0,5.0,96,0.12,,,0.36,weatherlink.com 1.10,2013-09-21 16:35:00,
2013-09-21 12:50:00,60.4,59.0,29.66,North,352,1.0,8.0,96,0.16,,,0.42,weatherlink.com 1.10,2013-09-21 16:50:00,
2013-09-21 13:05:00,60.3,59.0,29.66,NNW,337,2.0,4.0,96,0.18,,,0.46,weatherlink.com 1.10,2013-09-21 17:05:00,
2013-09-21 13:20:00,59.8,59.0,29.66,WNW,300,0.0,4.0,96,0.16,,,0.49,weatherlink.com 1.10,2013-09-21 17:20:00,
2013-09-21 13:35:00,59.9,59.0,29.67,WNW,287,0.0,5.0,97,0.17,,,0.53,weatherlink.com 1.10,2013-09-21 17:35:00,
2013-09-21 13:50:00,60.0,59.0,29.66,ENE,72,2.0,2.0,97,0.14,,,0.56,weatherlink.com 1.10,2013-09-21 17:50:00,
2013-09-21 14:05:00,60.3,59.0,29.66,North,8,1.0,3.0,96,0.11,,,0.57,weatherlink.com 1.10,2013-09-21 18:05:00,
2013-09-21 14:21:00,60.1,59.0,29.66,East,84,2.0,4.0,96,0.10,,,0.59,weatherlink.com 1.10,2013-09-21 18:21:00,
2013-09-21 14:35:00,59.9,59.0,29.66,ENE,70,0.0,3.0,95,0.07,,,0.60,weatherlink.com 1.10,2013-09-21 18:35:00,
2013-09-21 14:50:00,60.1,59.0,29.66,East,93,0.0,2.0,95,0.05,,,0.61,weatherlink.com 1.10,2013-09-21 18:50:00,
2013-09-21 15:05:00,60.3,59.0,29.65,ENE,77,2.0,5.0,95,0.05,,,0.62,weatherlink.com 1.10,2013-09-21 19:05:00,
2013-09-21 15:20:00,60.4,59.0,29.64,East,81,3.0,5.0,95,0.04,,,0.63,weatherlink.com 1.10,2013-09-21 19:20:00,
2013-09-21 15:35:00,60.6,59.0,29.65,South,174,0.0,3.0,95,0.04,,,0.64,weatherlink.com 1.10,2013-09-21 19:35:00,
2013-09-21 15:50:00,60.2,59.0,29.64,SE,134,0.0,9.0,95,0.04,,,0.65,weatherlink.com 1.10,2013-09-21 19:50:00,
2013-09-21 16:05:00,60.3,59.0,29.65,SW,219,0.0,3.0,95,0.04,,,0.66,weatherlink.com 1.10,2013-09-21 20:05:00,
2013-09-21 16:20:00,60.4,59.0,29.65,East,88,0.0,1.0,96,0.04,,,0.67,weatherlink.com 1.10,2013-09-21 20:20:00,
2013-09-21 16:35:00,60.3,59.0,29.66,WSW,243,0.0,1.0,96,0.03,,,0.67,weatherlink.com 1.10,2013-09-21 20:35:00,
2013-09-21 16:51:00,60.3,59.0,29.66,SSW,207,0.0,0.0,96,0.02,,,0.67,weatherlink.com 1.10,2013-09-21 20:51:00,
2013-09-21 17:06:00,60.5,59.0,29.66,SSW,205,0.0,0.0,96,0.01,,,0.67,weatherlink.com 1.10,2013-09-21 21:06:00,
2013-09-21 17:21:00,60.7,60.0,29.66,SW,231,0.0,1.0,97,0.00,,,0.67,weatherlink.com 1.10,2013-09-21 21:21:00,
2013-09-21 17:36:00,60.9,60.0,29.67,SW,219,0.0,1.0,96,0.02,,,0.69,weatherlink.com 1.10,2013-09-21 21:36:00,
2013-09-21 17:51:00,60.8,60.0,29.67,WSW,255,0.0,1.0,96,0.04,,,0.71,weatherlink.com 1.10,2013-09-21 21:51:00,
2013-09-21 18:06:00,60.4,60.0,29.67,SW,214,0.0,1.0,97,0.06,,,0.73,weatherlink.com 1.10,2013-09-21 22:06:00,
2013-09-21 18:21:00,60.1,59.0,29.67,SE,124,0.0,2.0,97,0.06,,,0.73,weatherlink.com 1.10,2013-09-21 22:21:00,
2013-09-21 18:36:00,60.0,59.0,29.67,South,190,0.0,1.0,97,0.04,,,0.73,weatherlink.com 1.10,2013-09-21 22:36:00,
2013-09-21 18:51:00,60.3,60.0,29.68,WNW,288,3.0,5.0,97,0.02,,,0.73,weatherlink.com 1.10,2013-09-21 22:51:00,
2013-09-21 19:06:00,60.0,59.0,29.68,WNW,289,0.0,5.0,97,0.00,,,0.73,weatherlink.com 1.10,2013-09-21 23:06:00,
2013-09-21 19:21:00,59.9,59.0,29.68,NNW,340,0.0,0.0,97,0.00,,,0.73,weatherlink.com 1.10,2013-09-21 23:21:00,
2013-09-21 19:36:00,59.7,59.0,29.68,NNW,340,0.0,0.0,97,0.00,,,0.73,weatherlink.com 1.10,2013-09-21 23:36:00,
2013-09-21 19:51:00,59.5,59.0,29.69,NNW,340,0.0,0.0,97,0.00,,,0.73,weatherlink.com 1.10,2013-09-21 23:51:00,
2013-09-21 20:06:00,59.5,59.0,29.69,NNW,340,0.0,0.0,97,0.00,,,0.73,weatherlink.com 1.10,2013-09-22 00:06:00,
2013-09-21 20:21:00,59.6,59.0,29.70,NNW,338,0.0,0.0,97,0.00,,,0.73,weatherlink.com 1.10,2013-09-22 00:21:00,
2013-09-21 20:36:00,59.5,59.0,29.70,NNW,339,0.0,0.0,97,0.00,,,0.73,weatherlink.com 1.10,2013-09-22 00:36:00,
2013-09-21 20:51:00,59.4,59.0,29.71,NNW,336,0.0,1.0,97,0.00,,,0.73,weatherlink.com 1.10,2013-09-22 00:51:00,
2013-09-21 21:06:00,59.2,58.0,29.71,NNW,336,0.0,0.0,97,0.00,,,0.73,weatherlink.com 1.10,2013-09-22 01:06:00,
2013-09-21 21:21:00,59.2,59.0,29.71,NNW,335,0.0,1.0,98,0.00,,,0.73,weatherlink.com 1.10,2013-09-22 01:21:00,
2013-09-21 21:36:00,59.0,59.0,29.71,NNW,328,0.0,0.0,98,0.00,,,0.73,weatherlink.com 1.10,2013-09-22 01:36:00,
2013-09-21 21:51:00,59.0,59.0,29.72,NNW,328,0.0,0.0,98,0.01,,,0.74,weatherlink.com 1.10,2013-09-22 01:51:00,
2013-09-21 22:06:00,59.1,59.0,29.72,NW,326,0.0,0.0,98,0.01,,,0.74,weatherlink.com 1.10,2013-09-22 02:06:00,
2013-09-21 22:21:00,59.8,59.0,29.73,WNW,285,3.0,3.0,98,0.01,,,0.74,weatherlink.com 1.10,2013-09-22 02:21:00,
2013-09-21 22:36:00,59.5,59.0,29.73,North,4,0.0,2.0,98,0.01,,,0.74,weatherlink.com 1.10,2013-09-22 02:36:00,
2013-09-21 22:51:00,59.0,58.0,29.74,North,349,0.0,5.0,97,0.00,,,0.74,weatherlink.com 1.10,2013-09-22 02:51:00,
2013-09-21 23:06:00,58.5,58.0,29.74,NNW,328,0.0,1.0,97,0.00,,,0.74,weatherlink.com 1.10,2013-09-22 03:06:00,
2013-09-21 23:21:00,57.9,57.0,29.74,West,273,0.0,1.0,97,0.00,,,0.74,weatherlink.com 1.10,2013-09-22 03:21:00,
2013-09-21 23:36:00,57.6,57.0,29.74,West,269,0.0,2.0,97,0.00,,,0.74,weatherlink.com 1.10,2013-09-22 03:36:00,
2013-09-21 23:51:00,57.3,57.0,29.75,NNW,346,0.0,1.0,97,0.00,,,0.74,weatherlink.com 1.10,2013-09-22 03:51:00,